Tropical Cyclones
[Index]
Main Index Home Page Stock Weather Photos Extreme Storms Discussion Storm News and Storm Chasing Reports Tropical Cyclones / Hurricanes / Typhoons Weather Data and Links Wild Fires / Bushfires Weather Observation Techniques Weather Picture Catalogue Tornado Pictures and Reports Stock Video Footage and DVDs for sale
Season 1973-1974 Tropical Cyclone INES Track Map
Season 1973-1974 Summaries: [BoM-AU] [JTWC-AU] [JTWC-SIO] [JTWC-SPAC] [JTWC-SH]
<<- Previous TC | BoM 1973-1974 Season | Next TC ->>

click for intensity scale information  Lat/long Grid: Show Hide

 Date Labels: Show Hide

Bureau of Meteorology Tropical Cyclone Data

Name: INES
Number: 511 / 197374_01

17 Nov 1973 00:00 UTC to 24 Nov 1973 07:00 UTC

    date/time    lat    long    hPa   cat  kts
1973-11-17 00   11.5   134.8                            
1973-11-17 03   11.5   134.5                            
1973-11-17 06   11.5   134.0                            
1973-11-17 09   11.4   133.6                            
1973-11-17 12   11.2   133.6                            
1973-11-17 15   11.0   133.2                            
1973-11-17 18   10.9   133.1                            
1973-11-17 21   10.8   132.9                            
1973-11-18 00   10.8   132.8                            
1973-11-18 03   10.8   132.5                            
1973-11-18 06   10.9   132.3                            
1973-11-18 09   10.9   132.0                            
1973-11-18 12   10.9   131.8    995    1                
1973-11-18 15   10.9   131.6    995    1                
1973-11-18 18   10.9   131.3    995    1                
1973-11-18 21   10.9   131.0    995    1                
1973-11-19 00   10.9   130.8    995    1                
1973-11-19 03   11.0   130.5    995    1                
1973-11-19 06   11.1   130.1    993    1                
1973-11-19 09   11.1   129.9    993    1                
1973-11-19 12   11.2   129.5    993    1                
1973-11-19 15   11.3   129.2    993    1                
1973-11-19 18   11.3   129.0    993    1                
1973-11-19 21   11.4   128.7    990    1                
1973-11-20 00   11.5   128.5    990    1                
1973-11-20 03   11.7   128.2    990    1                
1973-11-20 06   11.8   127.9    985    2                
1973-11-20 09   12.0   127.5    985    2                
1973-11-20 12   12.2   127.3    980    2                
1973-11-20 15   12.5   126.8    980    2                
1973-11-20 18   12.7   126.6    975    2                
1973-11-20 21   12.9   126.4    975    2                
1973-11-21 00   13.2   126.2    970    3                
1973-11-21 03   13.4   126.1    970    3                
1973-11-21 06   13.7   126.1    970    3                
1973-11-21 09   13.9   126.0    970    3                
1973-11-21 12   14.2   125.9    970    3                
1973-11-21 15   14.5   125.8    980    2                
1973-11-21 16   15.0   125.4    985    2                
1973-11-21 19   15.3   125.3    987    1                
1973-11-21 22   15.6   125.3    989    1                
1973-11-22 01   15.9   125.4    990    1                
1973-11-22 04   16.2   125.4    991    1                
1973-11-22 07   16.5   125.4    991    1                
1973-11-22 10   16.7   125.4    991    1                
1973-11-22 13   17.0   125.4    992    1                
1973-11-22 16   17.3   125.4    992    1                
1973-11-22 19   17.6   125.4    992    1                
1973-11-22 22   17.8   125.4    993    1                
1973-11-23 01   18.0   125.4    994    1                
1973-11-23 04   18.2   125.4    995    1                
1973-11-23 07   18.3   125.4    996                     
1973-11-23 10   18.4   125.4    997                     
1973-11-23 13   18.4   125.4    998                     
1973-11-23 16   18.5   125.4    999                     
1973-11-23 19   18.6   125.4    999                     
1973-11-23 22   19.0   126.7   1000                     
1973-11-24 01   19.4   127.5   1000                     
1973-11-24 04   19.8   128.6   1000                     
1973-11-24 07   19.8   129.5   1000                     
Winds are 10-min average.

Tropical cyclone tracks developed by Michael Bath using data from the Bureau of Meteorology and Google Maps.


[Australian Severe Weather index] [Copyright Notice] [Email Contacts] [Search This Site] [Privacy Policy]
Document: tropical_cyclone_ines.htm Updated: 30 May 2013